Time;durP1;ratioP1;P1;durP2;ratioP2;P2;SDS_P1;SDS_P2;PMS_P1;PMS_P2;Temp;Humidity;BMP_temperature;BMP_pressure;BME280_temperature;BME280_humidity;BME280_pressure;Samples;Min_cycle;Max_cycle;Signal;HPM_P1;HPM_P2
2022/10/09 00:00:18;;;;;;;12.77;7.07;;;15.30;99.90;;;;;;5194247;28;20051;-63
2022/10/09 00:02:50;;;;;;;11.73;7.40;;;15.30;99.90;;;;;;5195059;28;20033;-63
2022/10/09 00:05:25;;;;;;;13.25;6.90;;;15.30;99.90;;;;;;5188231;28;20061;-63
2022/10/09 00:07:57;;;;;;;9.60;6.07;;;15.20;99.90;;;;;;5222677;28;20313;-63
2022/10/09 00:10:28;;;;;;;10.63;6.03;;;15.20;99.90;;;;;;5215494;28;20058;-63
2022/10/09 00:13:04;;;;;;;8.77;5.95;;;15.20;99.90;;;;;;5223305;28;20448;-63
2022/10/09 00:15:40;;;;;;;7.72;5.45;;;15.20;99.90;;;;;;5196824;28;20032;-63
2022/10/09 00:18:15;;;;;;;9.65;5.28;;;15.20;99.90;;;;;;5179309;28;20024;-63
2022/10/09 00:20:46;;;;;;;7.78;5.40;;;15.10;99.90;;;;;;5195972;28;20025;-63
2022/10/09 00:23:18;;;;;;;7.22;5.35;;;15.10;99.90;;;;;;5195985;28;20030;-63
2022/10/09 00:25:56;;;;;;;9.40;5.35;;;15.10;99.90;;;;;;5161949;28;20021;-64
2022/10/09 00:28:30;;;;;;;10.45;5.28;;;15.00;99.90;;;;;;5194699;28;20036;-66
2022/10/09 00:31:08;;;;;;;10.07;4.70;;;15.00;99.90;;;;;;5178495;28;20048;-63
2022/10/09 00:33:39;;;;;;;5.80;4.07;;;15.00;99.90;;;;;;5196654;28;20424;-66
2022/10/09 00:36:15;;;;;;;6.20;4.10;;;15.00;99.90;;;;;;5178475;28;20017;-64
2022/10/09 00:38:52;;;;;;;7.38;4.10;;;14.90;99.90;;;;;;5195984;28;20807;-65
2022/10/09 00:41:29;;;;;;;7.32;4.28;;;14.90;99.90;;;;;;5195520;28;20021;-65
2022/10/09 00:44:22;;;;;;;7.85;4.80;;;14.90;99.90;;;;;;5181047;28;20297;-63
2022/10/09 00:46:56;;;;;;;6.80;4.43;;;14.90;99.90;;;;;;5195388;28;20211;-62
2022/10/09 00:49:32;;;;;;;7.07;4.47;;;14.80;99.90;;;;;;5210172;28;20040;-63
2022/10/09 00:52:10;;;;;;;5.30;4.18;;;14.80;99.90;;;;;;5196138;28;20213;-63
2022/10/09 00:54:44;;;;;;;6.00;4.00;;;14.80;99.90;;;;;;5181504;28;20581;-63
2022/10/09 00:57:18;;;;;;;9.02;5.00;;;14.70;99.90;;;;;;5198454;28;20024;-64
2022/10/09 00:59:52;;;;;;;9.57;4.38;;;14.70;99.90;;;;;;5199154;28;20031;-63
2022/10/09 01:02:25;;;;;;;4.97;4.32;;;14.60;99.90;;;;;;5224003;22;20056;-73
2022/10/09 01:04:57;;;;;;;7.32;4.30;;;14.60;99.90;;;;;;5183903;28;20101;-73
2022/10/09 01:07:46;;;;;;;8.95;4.10;;;14.60;99.90;;;;;;5178785;28;20037;-72
2022/10/09 01:10:29;;;;;;;6.10;4.03;;;14.50;99.90;;;;;;5161886;28;20214;-72
2022/10/09 01:13:22;;;;;;;8.75;4.22;;;14.50;99.90;;;;;;5193489;28;20036;-73
2022/10/09 01:15:56;;;;;;;4.45;3.63;;;14.50;99.90;;;;;;5175232;28;20024;-72
2022/10/09 01:18:50;;;;;;;8.90;3.58;;;14.40;99.90;;;;;;5197174;28;20021;-71
2022/10/09 01:21:40;;;;;;;4.90;3.40;;;14.40;99.90;;;;;;5196608;28;20509;-72
2022/10/09 01:24:34;;;;;;;4.85;3.50;;;14.40;99.90;;;;;;5196118;28;20017;-72
2022/10/09 01:27:12;;;;;;;7.88;3.65;;;14.30;99.90;;;;;;5190750;28;20229;-72
2022/10/09 01:29:56;;;;;;;4.05;2.97;;;14.30;99.90;;;;;;5200797;28;20097;-72
2022/10/09 01:32:32;;;;;;;4.80;3.38;;;14.20;99.90;;;;;;5196877;28;20361;-72
2022/10/09 01:35:05;;;;;;;5.88;3.72;;;14.20;99.90;;;;;;5198712;28;20048;-74
2022/10/09 01:37:40;;;;;;;6.88;4.20;;;14.20;99.90;;;;;;5178729;28;20033;-73
2022/10/09 01:40:16;;;;;;;6.63;4.57;;;14.10;99.90;;;;;;5194741;28;20028;-74
2022/10/09 01:42:47;;;;;;;6.40;4.57;;;14.10;99.90;;;;;;5180528;28;20021;-73
2022/10/09 01:45:19;;;;;;;6.18;3.88;;;14.10;99.90;;;;;;5197167;28;20040;-74
2022/10/09 01:47:50;;;;;;;6.00;3.88;;;14.00;99.90;;;;;;5197286;28;20044;-73
2022/10/09 01:50:37;;;;;;;7.30;4.30;;;14.00;99.90;;;;;;5197775;28;20088;-72
2022/10/09 01:53:17;;;;;;;8.45;4.32;;;14.00;99.90;;;;;;5180171;28;20051;-73
2022/10/09 01:56:04;;;;;;;6.68;4.22;;;14.00;99.90;;;;;;5180979;28;20025;-72
2022/10/09 01:58:43;;;;;;;6.32;4.50;;;13.90;99.90;;;;;;5170751;28;20045;-73
2022/10/09 02:01:24;;;;;;;10.40;4.18;;;13.90;99.90;;;;;;5196515;28;20453;-72
2022/10/09 02:03:58;;;;;;;7.00;4.20;;;13.80;99.90;;;;;;5191681;28;20014;-73
2022/10/09 02:06:31;;;;;;;4.85;3.70;;;13.80;99.90;;;;;;5191029;28;20056;-73
2022/10/09 02:09:08;;;;;;;4.88;3.58;;;13.80;99.90;;;;;;5191782;28;20064;-73
2022/10/09 02:11:46;;;;;;;5.00;3.45;;;13.80;99.90;;;;;;5198675;28;20036;-73
2022/10/09 02:14:20;;;;;;;4.13;3.13;;;13.70;99.90;;;;;;5214937;28;20020;-72
2022/10/09 02:17:03;;;;;;;4.63;2.80;;;13.60;99.90;;;;;;5195328;28;20033;-72
2022/10/09 02:19:51;;;;;;;5.75;2.88;;;13.60;99.90;;;;;;5191086;28;20029;-73
2022/10/09 02:22:30;;;;;;;5.22;2.72;;;13.50;99.90;;;;;;5213986;28;20025;-71
2022/10/09 02:25:05;;;;;;;7.25;2.75;;;13.50;99.90;;;;;;5215293;28;20040;-73
2022/10/09 02:27:39;;;;;;;2.60;2.28;;;13.40;99.90;;;;;;5195515;28;20044;-73
2022/10/09 02:30:12;;;;;;;8.18;2.85;;;13.40;99.90;;;;;;5219335;28;20028;-73
2022/10/09 02:32:53;;;;;;;4.40;2.88;;;13.40;99.90;;;;;;5217064;28;20029;-72
2022/10/09 02:35:24;;;;;;;3.60;2.60;;;13.30;99.90;;;;;;5187839;28;20021;-71
2022/10/09 02:37:56;;;;;;;3.17;2.35;;;13.20;99.90;;;;;;5197597;28;20037;-72
2022/10/09 02:40:30;;;;;;;4.80;2.75;;;13.10;99.90;;;;;;5217625;28;20027;-72
2022/10/09 02:43:01;;;;;;;4.28;2.65;;;13.10;99.90;;;;;;5196398;28;20202;-72
2022/10/09 02:45:34;;;;;;;7.05;3.17;;;13.00;99.90;;;;;;5217301;28;20037;-72
2022/10/09 02:48:05;;;;;;;9.40;2.63;;;12.90;99.90;;;;;;5215239;28;20033;-72
2022/10/09 02:50:39;;;;;;;4.13;2.67;;;12.80;99.90;;;;;;5214620;28;20246;-72
2022/10/09 02:53:10;;;;;;;3.60;2.60;;;12.70;99.90;;;;;;5213861;28;20023;-73
2022/10/09 02:55:41;;;;;;;4.00;2.40;;;12.60;99.90;;;;;;5194779;28;20419;-72
2022/10/09 02:58:12;;;;;;;5.20;2.97;;;12.50;99.90;;;;;;5197932;28;20256;-72
2022/10/09 03:00:53;;;;;;;5.75;2.63;;;12.50;99.90;;;;;;5218332;28;20424;-71
2022/10/09 03:03:30;;;;;;;4.63;2.47;;;12.40;99.90;;;;;;5215454;28;20029;-72
2022/10/09 03:06:13;;;;;;;7.85;2.63;;;12.40;99.90;;;;;;5183163;28;20108;-72
2022/10/09 03:08:46;;;;;;;3.70;2.65;;;12.40;99.90;;;;;;5211839;28;20051;-71
2022/10/09 03:11:19;;;;;;;7.32;2.95;;;12.30;99.90;;;;;;5214021;28;20039;-71
2022/10/09 03:13:51;;;;;;;6.13;2.42;;;12.30;99.90;;;;;;5211569;28;20037;-72
2022/10/09 03:16:24;;;;;;;3.53;2.40;;;12.20;99.90;;;;;;5193716;28;20028;-71
2022/10/09 03:18:58;;;;;;;3.17;2.50;;;12.20;99.90;;;;;;5198509;28;20022;-72
2022/10/09 03:21:32;;;;;;;3.72;2.22;;;12.10;99.90;;;;;;5181278;28;20056;-71
2022/10/09 03:24:03;;;;;;;5.95;2.50;;;12.10;99.90;;;;;;5210794;28;20029;-73
2022/10/09 03:26:36;;;;;;;3.40;2.13;;;12.10;99.90;;;;;;5216309;28;20033;-73
2022/10/09 03:29:07;;;;;;;3.42;2.30;;;12.00;99.90;;;;;;5169416;28;20437;-73
2022/10/09 03:31:41;;;;;;;4.70;2.63;;;11.90;99.90;;;;;;5210838;28;21010;-72
2022/10/09 03:34:15;;;;;;;3.40;2.65;;;11.90;99.90;;;;;;5211829;28;20372;-73
2022/10/09 03:36:46;;;;;;;8.07;2.80;;;11.80;99.90;;;;;;5211177;28;20035;-73
2022/10/09 03:39:19;;;;;;;2.67;2.08;;;11.70;99.90;;;;;;5213417;28;20254;-72
2022/10/09 03:41:51;;;;;;;5.67;2.50;;;11.70;99.90;;;;;;5193364;28;20028;-73
2022/10/09 03:44:24;;;;;;;6.68;2.75;;;11.60;99.90;;;;;;5211455;28;20035;-73
2022/10/09 03:46:55;;;;;;;3.17;2.87;;;11.60;99.90;;;;;;5190269;28;20047;-71
2022/10/09 03:49:27;;;;;;;3.65;2.40;;;11.50;99.90;;;;;;5196739;28;20040;-73
2022/10/09 03:51:58;;;;;;;10.30;2.97;;;11.50;99.90;;;;;;5177130;28;20029;-71
2022/10/09 03:54:31;;;;;;;5.60;2.55;;;11.40;99.90;;;;;;5197997;28;20035;-71
2022/10/09 03:57:02;;;;;;;4.45;2.70;;;11.50;99.90;;;;;;5217498;28;20018;-71
2022/10/09 03:59:36;;;;;;;4.28;2.60;;;11.40;99.90;;;;;;5213997;28;20026;-73
2022/10/09 04:02:07;;;;;;;4.40;2.88;;;11.40;99.90;;;;;;5195958;28;20456;-72
2022/10/09 04:04:38;;;;;;;6.78;2.95;;;11.40;99.90;;;;;;5200280;28;20045;-73
2022/10/09 04:07:10;;;;;;;5.50;3.28;;;11.40;99.90;;;;;;5215303;28;20033;-73
2022/10/09 04:09:41;;;;;;;5.15;2.95;;;11.40;99.90;;;;;;5189052;28;20651;-73
2022/10/09 04:12:14;;;;;;;3.95;2.33;;;11.40;99.90;;;;;;5192739;28;20433;-71
2022/10/09 04:14:46;;;;;;;5.63;3.10;;;11.30;99.90;;;;;;5210357;28;20016;-73
2022/10/09 04:17:18;;;;;;;7.82;2.47;;;11.30;99.90;;;;;;5207742;28;20101;-74
2022/10/09 04:19:49;;;;;;;4.13;2.70;;;11.30;99.90;;;;;;5210619;28;20016;-71
2022/10/09 04:22:21;;;;;;;3.88;2.67;;;11.30;99.90;;;;;;5207081;28;20059;-70
2022/10/09 04:24:52;;;;;;;5.20;2.90;;;11.20;99.90;;;;;;5208845;28;20028;-71
2022/10/09 04:27:23;;;;;;;4.88;2.78;;;11.20;99.90;;;;;;5215770;28;20033;-71
2022/10/09 04:29:54;;;;;;;3.72;2.38;;;11.20;99.90;;;;;;5199001;28;20025;-71
2022/10/09 04:32:31;;;;;;;6.57;2.58;;;11.10;99.90;;;;;;5215682;28;20033;-71
2022/10/09 04:35:02;;;;;;;7.28;2.58;;;11.10;99.90;;;;;;5212102;28;20574;-73
2022/10/09 04:37:35;;;;;;;3.00;2.40;;;11.10;99.90;;;;;;5215294;28;20099;-73
2022/10/09 04:40:07;;;;;;;4.03;2.60;;;11.10;99.90;;;;;;5202504;28;20013;-72
2022/10/09 04:42:41;;;;;;;9.60;3.47;;;11.00;99.90;;;;;;5197344;28;20029;-72
2022/10/09 04:45:12;;;;;;;6.07;3.45;;;11.00;99.90;;;;;;5201176;28;20590;-73
2022/10/09 04:47:43;;;;;;;6.70;2.78;;;10.90;99.90;;;;;;5217815;28;20024;-73
2022/10/09 04:50:14;;;;;;;4.90;2.58;;;10.90;99.90;;;;;;5214522;28;20029;-73
2022/10/09 04:52:46;;;;;;;4.57;2.88;;;10.80;99.90;;;;;;5214935;28;20130;-71
2022/10/09 04:55:17;;;;;;;5.28;3.38;;;10.80;99.90;;;;;;5220129;28;20036;-73
2022/10/09 04:57:50;;;;;;;4.65;3.00;;;10.80;99.90;;;;;;5176911;28;20033;-72
2022/10/09 05:00:21;;;;;;;9.20;3.17;;;10.80;99.90;;;;;;5221124;28;20043;-72
2022/10/09 05:02:53;;;;;;;7.00;2.65;;;10.70;99.90;;;;;;5178257;28;20040;-73
2022/10/09 05:05:24;;;;;;;3.22;2.50;;;10.70;99.90;;;;;;5186057;28;20040;-73
2022/10/09 05:08:00;;;;;;;5.22;2.65;;;10.60;99.90;;;;;;5212328;28;20048;-72
2022/10/09 05:10:31;;;;;;;6.40;2.88;;;10.70;99.90;;;;;;5218827;28;20024;-73
2022/10/09 05:13:05;;;;;;;4.65;2.45;;;10.60;99.90;;;;;;5212015;28;20029;-72
2022/10/09 05:15:39;;;;;;;2.60;2.40;;;10.60;99.90;;;;;;5199839;28;20031;-72
2022/10/09 05:18:10;;;;;;;4.03;2.65;;;10.60;99.90;;;;;;5213434;28;20025;-72
2022/10/09 05:20:44;;;;;;;2.53;2.15;;;10.60;99.90;;;;;;5215623;28;20021;-72
2022/10/09 05:23:15;;;;;;;5.23;3.00;;;10.70;99.90;;;;;;5208722;28;20043;-72
2022/10/09 05:25:54;;;;;;;4.00;2.60;;;10.70;99.90;;;;;;5195939;28;20033;-74
2022/10/09 05:28:28;;;;;;;3.78;2.35;;;10.70;99.90;;;;;;5196496;28;20559;-72
2022/10/09 05:31:02;;;;;;;3.00;2.67;;;10.70;99.90;;;;;;5196055;28;20041;-73
2022/10/09 05:33:38;;;;;;;3.65;2.72;;;10.60;99.90;;;;;;5214321;28;20051;-72
2022/10/09 05:36:09;;;;;;;10.02;3.50;;;10.70;99.90;;;;;;5193923;28;20029;-72
2022/10/09 05:38:41;;;;;;;8.30;3.38;;;10.80;99.90;;;;;;5205557;28;20013;-73
2022/10/09 05:41:14;;;;;;;4.22;3.13;;;10.80;99.90;;;;;;5197898;28;20029;-72
2022/10/09 05:43:47;;;;;;;5.65;3.10;;;11.00;99.90;;;;;;5210624;28;20044;-73
2022/10/09 05:46:23;;;;;;;7.22;2.63;;;11.00;99.90;;;;;;5188693;28;20020;-72
2022/10/09 05:49:03;;;;;;;5.13;2.67;;;11.00;99.90;;;;;;5217923;28;20446;-73
2022/10/09 05:51:37;;;;;;;4.32;2.38;;;11.10;99.90;;;;;;5210738;28;20101;-72
2022/10/09 05:54:13;;;;;;;3.50;3.00;;;11.10;99.90;;;;;;5186714;28;20549;-72
2022/10/09 05:56:50;;;;;;;3.70;2.33;;;11.20;99.90;;;;;;5179414;28;20282;-72
2022/10/09 05:59:26;;;;;;;2.28;2.08;;;11.20;99.90;;;;;;5185223;28;20043;-73
2022/10/09 06:02:02;;;;;;;6.55;2.88;;;11.30;99.90;;;;;;5211987;28;20052;-73
2022/10/09 06:04:33;;;;;;;3.65;2.40;;;11.30;99.90;;;;;;5201761;28;20051;-73
2022/10/09 06:07:11;;;;;;;3.28;2.60;;;11.40;99.90;;;;;;5214331;28;20009;-73
2022/10/09 06:09:42;;;;;;;3.40;2.22;;;11.40;99.90;;;;;;5219756;28;20032;-72
2022/10/09 06:12:13;;;;;;;3.50;2.50;;;11.40;99.90;;;;;;5208511;28;20036;-72
2022/10/09 06:14:45;;;;;;;3.40;2.25;;;11.50;99.90;;;;;;5212334;28;20047;-72
2022/10/09 06:17:17;;;;;;;4.82;2.40;;;11.50;99.90;;;;;;5212700;28;20450;-74
2022/10/09 06:19:51;;;;;;;3.25;2.20;;;11.60;99.90;;;;;;5194017;28;20039;-72
2022/10/09 06:22:22;;;;;;;5.65;3.53;;;11.60;99.90;;;;;;5210578;28;20028;-71
2022/10/09 06:24:53;;;;;;;3.92;2.20;;;11.70;99.90;;;;;;5215095;28;20027;-71
2022/10/09 06:27:27;;;;;;;2.58;2.15;;;11.70;99.90;;;;;;5186634;28;20044;-72
2022/10/09 06:29:58;;;;;;;4.75;2.40;;;11.80;99.90;;;;;;5214486;28;20024;-73
2022/10/09 06:32:34;;;;;;;3.92;2.22;;;11.90;99.90;;;;;;5191008;28;20040;-72
2022/10/09 06:35:06;;;;;;;5.60;3.30;;;11.90;99.90;;;;;;5189315;28;20453;-72
2022/10/09 06:37:37;;;;;;;3.22;2.03;;;11.90;99.90;;;;;;5198385;28;20070;-72
2022/10/09 06:40:09;;;;;;;3.78;2.45;;;11.90;99.90;;;;;;5214910;28;20028;-72
2022/10/09 06:42:43;;;;;;;3.63;2.22;;;12.00;99.90;;;;;;5192272;28;20418;-72
2022/10/09 06:45:14;;;;;;;5.38;2.28;;;12.00;99.90;;;;;;5190477;28;20033;-72
2022/10/09 06:47:45;;;;;;;2.55;2.33;;;12.10;99.90;;;;;;5214114;28;20345;-72
2022/10/09 06:50:22;;;;;;;4.63;2.08;;;12.00;99.90;;;;;;5214964;28;20497;-72
2022/10/09 06:52:53;;;;;;;5.78;2.30;;;12.10;99.90;;;;;;5193578;28;20029;-72
2022/10/09 06:55:25;;;;;;;4.85;2.42;;;12.20;99.90;;;;;;5190182;28;20033;-72
2022/10/09 06:57:56;;;;;;;3.67;2.30;;;12.30;99.90;;;;;;5192502;28;20064;-72
2022/10/09 07:00:27;;;;;;;4.32;2.72;;;12.30;99.90;;;;;;5195652;28;20025;-72
2022/10/09 07:03:01;;;;;;;7.25;3.00;;;12.30;99.90;;;;;;5206653;28;20033;-72
2022/10/09 07:05:32;;;;;;;4.22;2.22;;;12.40;99.90;;;;;;5195908;28;20049;-71
2022/10/09 07:08:06;;;;;;;4.35;2.30;;;12.60;99.90;;;;;;5204673;28;20044;-71
2022/10/09 07:10:37;;;;;;;2.67;2.13;;;12.60;99.90;;;;;;5213243;28;20037;-71
2022/10/09 07:13:08;;;;;;;7.45;2.65;;;12.70;99.90;;;;;;5197905;28;20495;-71
2022/10/09 07:15:45;;;;;;;3.65;2.30;;;12.70;99.90;;;;;;5192819;28;20027;-72
2022/10/09 07:18:18;;;;;;;4.03;2.08;;;12.70;99.90;;;;;;5179624;28;21041;-73
2022/10/09 07:20:58;;;;;;;4.55;2.05;;;12.80;99.90;;;;;;5175655;28;20060;-73
2022/10/09 07:23:34;;;;;;;2.25;1.83;;;12.80;99.90;;;;;;5206619;28;20494;-73
2022/10/09 07:26:14;;;;;;;4.03;2.10;;;13.00;99.90;;;;;;5209205;28;20025;-70
2022/10/09 07:28:52;;;;;;;2.28;2.10;;;13.00;99.90;;;;;;5194871;28;20037;-73
2022/10/09 07:31:24;;;;;;;4.32;2.20;;;13.00;99.90;;;;;;5210962;28;20036;-71
2022/10/09 07:33:55;;;;;;;2.33;2.00;;;12.90;99.90;;;;;;5190814;28;20036;-71
2022/10/09 07:36:29;;;;;;;4.45;1.95;;;13.00;99.90;;;;;;5191382;28;20033;-71
2022/10/09 07:39:01;;;;;;;4.57;1.85;;;13.10;99.90;;;;;;5195485;28;20041;-72
2022/10/09 07:41:33;;;;;;;3.45;1.88;;;13.20;99.90;;;;;;5212483;28;20023;-72
2022/10/09 07:44:07;;;;;;;1.88;1.67;;;13.30;99.90;;;;;;5212006;28;20039;-72
2022/10/09 07:46:38;;;;;;;2.83;1.90;;;13.20;99.90;;;;;;5194827;28;20036;-71
2022/10/09 07:49:12;;;;;;;5.38;2.20;;;13.40;99.90;;;;;;5208026;28;20039;-71
2022/10/09 07:51:44;;;;;;;3.15;1.95;;;13.40;99.90;;;;;;5207721;28;20029;-71
2022/10/09 07:54:15;;;;;;;2.05;1.80;;;13.40;99.90;;;;;;5192788;28;20032;-71
2022/10/09 07:56:46;;;;;;;2.42;1.50;;;13.50;99.90;;;;;;5195249;28;20024;-71
2022/10/09 07:59:17;;;;;;;3.63;1.52;;;13.50;99.90;;;;;;5196415;28;20203;-70
2022/10/09 08:01:49;;;;;;;3.13;2.03;;;13.60;99.90;;;;;;5213673;28;20314;-70
2022/10/09 08:04:22;;;;;;;3.97;1.98;;;13.70;99.90;;;;;;5206429;28;20031;-71
2022/10/09 08:06:57;;;;;;;1.83;1.73;;;13.70;99.90;;;;;;5220348;28;20055;-72
2022/10/09 08:09:28;;;;;;;2.85;1.70;;;13.70;99.90;;;;;;5209253;28;20029;-71
2022/10/09 08:11:59;;;;;;;2.33;1.33;;;13.80;99.90;;;;;;5214223;28;20017;-73
2022/10/09 08:14:30;;;;;;;4.38;2.20;;;14.10;99.90;;;;;;5219258;28;20025;-72
2022/10/09 08:17:02;;;;;;;4.30;1.70;;;14.30;99.90;;;;;;5201459;28;20026;-72
2022/10/09 08:19:43;;;;;;;3.63;1.60;;;14.40;99.90;;;;;;5192772;28;20025;-71
2022/10/09 08:22:14;;;;;;;3.00;1.80;;;14.20;99.90;;;;;;5181812;28;20033;-71
2022/10/09 08:24:45;;;;;;;4.63;2.20;;;14.40;99.90;;;;;;5209809;28;20033;-72
2022/10/09 08:27:19;;;;;;;2.47;1.63;;;14.30;99.90;;;;;;5194798;28;20059;-72
2022/10/09 08:29:53;;;;;;;3.85;1.98;;;14.40;99.90;;;;;;5213144;28;20040;-73
2022/10/09 08:32:24;;;;;;;2.92;1.92;;;14.40;99.90;;;;;;5199179;28;20029;-73
2022/10/09 08:34:58;;;;;;;1.90;1.67;;;14.60;99.90;;;;;;5202882;28;20014;-72
2022/10/09 08:37:29;;;;;;;3.90;2.00;;;14.90;99.90;;;;;;5208587;28;20025;-71
2022/10/09 08:40:01;;;;;;;2.78;1.58;;;15.10;99.90;;;;;;5212696;28;20016;-74
2022/10/09 08:42:42;;;;;;;4.43;1.40;;;15.10;99.90;;;;;;5200076;28;20538;-72
2022/10/09 08:45:18;;;;;;;5.10;1.95;;;15.40;99.90;;;;;;5206416;28;20031;-73
2022/10/09 08:47:58;;;;;;;2.33;1.85;;;16.00;99.90;;;;;;5214781;28;20029;-73
2022/10/09 08:50:39;;;;;;;3.67;1.60;;;15.70;99.90;;;;;;5217981;28;20037;-73
2022/10/09 08:53:22;;;;;;;2.33;1.50;;;15.50;99.90;;;;;;5196724;28;20028;-74
2022/10/09 08:56:03;;;;;;;3.42;1.52;;;15.70;99.90;;;;;;5212381;28;20060;-73
2022/10/09 08:58:42;;;;;;;3.00;1.90;;;15.70;99.90;;;;;;5186671;28;20689;-73
2022/10/09 09:01:42;;;;;;;5.03;1.70;;;16.10;99.90;;;;;;5200535;28;20025;-74
2022/10/09 09:04:28;;;;;;;3.05;1.77;;;17.10;99.90;;;;;;5199801;28;20017;-74
2022/10/09 09:07:10;;;;;;;5.70;2.40;;;17.40;99.90;;;;;;5212103;28;20395;-74
2022/10/09 09:09:55;;;;;;;4.72;1.88;;;17.10;99.90;;;;;;5215719;28;20036;-74
2022/10/09 09:13:02;;;;;;;7.50;1.80;;;17.80;99.90;;;;;;5191769;28;20052;-73
2022/10/09 09:15:54;;;;;;;3.65;2.10;;;16.90;99.90;;;;;;5208987;28;20344;-74
2022/10/09 09:18:42;;;;;;;2.30;1.48;;;16.60;99.90;;;;;;5209436;28;20388;-74
2022/10/09 09:21:50;;;;;;;3.95;1.90;;;17.70;99.90;;;;;;5210988;28;20033;-73
2022/10/09 09:24:34;;;;;;;1.98;1.75;;;17.10;99.90;;;;;;5199216;28;20028;-73
2022/10/09 09:27:33;;;;;;;4.50;1.90;;;17.30;99.90;;;;;;5198725;28;20318;-74
2022/10/09 09:30:16;;;;;;;2.50;1.70;;;17.00;99.90;;;;;;5194763;28;20041;-73
2022/10/09 09:33:00;;;;;;;4.43;2.13;;;17.30;99.90;;;;;;5207238;28;20039;-73
2022/10/09 09:35:55;;;;;;;2.38;1.90;;;17.90;99.90;;;;;;5212248;28;20037;-74
2022/10/09 09:38:27;;;;;;;4.65;1.95;;;17.80;99.90;;;;;;5199759;28;20200;-73
2022/10/09 09:40:58;;;;;;;3.97;1.50;;;17.60;99.90;;;;;;5207460;28;20041;-73
2022/10/09 09:43:30;;;;;;;4.05;1.70;;;18.30;99.90;;;;;;5207530;28;20029;-73
2022/10/09 09:46:03;;;;;;;2.85;1.70;;;18.20;99.90;;;;;;5213946;28;20025;-73
2022/10/09 09:48:42;;;;;;;2.03;1.50;;;18.20;99.90;;;;;;5205577;28;20678;-74
2022/10/09 09:51:23;;;;;;;3.33;2.00;;;18.40;99.90;;;;;;5208253;28;20025;-74
2022/10/09 09:54:07;;;;;;;3.67;1.83;;;18.10;99.90;;;;;;5186066;28;20040;-74
2022/10/09 09:56:41;;;;;;;4.00;1.80;;;18.70;99.90;;;;;;5218213;28;20024;-74
2022/10/09 09:59:37;;;;;;;3.00;1.55;;;19.40;99.90;;;;;;5195687;28;20024;-73
2022/10/09 10:02:13;;;;;;;2.65;1.77;;;20.30;99.90;;;;;;5209626;28;20031;-74
2022/10/09 10:04:56;;;;;;;2.58;2.03;;;20.40;99.90;;;;;;5194818;28;20579;-73
2022/10/09 10:07:37;;;;;;;3.13;1.83;;;19.40;99.90;;;;;;5208935;28;20553;-74
2022/10/09 10:10:11;;;;;;;1.73;1.48;;;19.80;99.90;;;;;;5212411;28;20043;-74
2022/10/09 10:12:54;;;;;;;4.15;1.50;;;20.20;99.90;;;;;;5210764;28;20013;-73
2022/10/09 10:15:37;;;;;;;3.50;1.80;;;19.10;99.90;;;;;;5200600;28;20349;-73
2022/10/09 10:18:18;;;;;;;3.35;1.48;;;17.80;99.90;;;;;;5215639;28;20025;-74
2022/10/09 10:20:55;;;;;;;3.55;1.80;;;18.20;99.90;;;;;;5211549;28;20593;-74
2022/10/09 10:23:42;;;;;;;2.72;1.77;;;19.00;99.90;;;;;;5204605;28;20033;-73
2022/10/09 10:26:28;;;;;;;2.53;1.30;;;19.70;99.90;;;;;;5205170;28;20037;-73
2022/10/09 10:29:28;;;;;;;4.00;1.70;;;20.30;99.90;;;;;;5210519;28;20036;-74
2022/10/09 10:32:22;;;;;;;3.53;1.90;;;20.70;99.90;;;;;;5207674;28;20013;-73
2022/10/09 10:34:59;;;;;;;2.13;1.40;;;22.20;99.90;;;;;;5207403;28;20031;-74
2022/10/09 10:37:34;;;;;;;1.95;1.30;;;23.70;99.90;;;;;;5196788;28;20901;-74
2022/10/09 10:40:26;;;;;;;2.90;1.35;;;25.40;99.90;;;;;;5195895;28;20037;-74
2022/10/09 10:43:09;;;;;;;1.10;1.00;;;26.00;99.90;;;;;;5180818;28;20068;-74
2022/10/09 10:45:43;;;;;;;1.70;1.20;;;24.40;99.90;;;;;;5209887;28;20036;-73
2022/10/09 10:48:27;;;;;;;2.05;1.42;;;23.30;99.90;;;;;;5195013;28;20033;-74
2022/10/09 10:51:35;;;;;;;1.33;1.00;;;23.10;99.90;;;;;;5188361;28;20040;-73
2022/10/09 10:54:34;;;;;;;3.35;1.15;;;22.60;99.90;;;;;;5196804;28;20023;-74
2022/10/09 10:57:08;;;;;;;2.00;1.30;;;22.70;99.90;;;;;;5210893;28;20043;-74
2022/10/09 10:59:46;;;;;;;;;;;24.20;99.90;;;;;;5200274;28;20464;-73
2022/10/09 11:02:37;;;;;;;2.30;1.58;;;23.60;99.90;;;;;;5202268;28;19908;-74
2022/10/09 11:05:14;;;;;;;1.55;1.10;;;24.20;99.90;;;;;;5201460;28;20108;-74
2022/10/09 11:08:07;;;;;;;2.30;1.10;;;25.20;99.90;;;;;;5192086;28;20507;-73
2022/10/09 11:10:51;;;;;;;2.42;1.10;;;25.50;99.90;;;;;;5211740;28;20033;-73
2022/10/09 11:13:29;;;;;;;1.33;0.90;;;25.50;99.90;;;;;;5195436;28;20256;-73
2022/10/09 11:16:25;;;;;;;1.48;0.95;;;25.50;99.90;;;;;;5209656;28;20024;-73
2022/10/09 11:19:02;;;;;;;2.50;1.25;;;26.10;99.90;;;;;;5212533;28;20871;-73
2022/10/09 11:21:36;;;;;;;2.08;1.35;;;25.70;99.90;;;;;;5210825;28;20027;-73
2022/10/09 11:24:44;;;;;;;1.40;1.20;;;24.30;99.90;;;;;;5187372;28;20014;-73
2022/10/09 11:27:22;;;;;;;3.92;1.42;;;24.70;99.90;;;;;;5145710;28;20041;-75
2022/10/09 11:29:56;;;;;;;2.90;1.20;;;24.10;99.90;;;;;;5181231;28;20026;-73
2022/10/09 11:32:53;;;;;;;3.15;1.30;;;24.40;99.90;;;;;;5210557;28;20035;-73
2022/10/09 11:35:32;;;;;;;2.30;1.55;;;24.90;99.90;;;;;;5196187;28;20714;-73
2022/10/09 11:38:19;;;;;;;1.30;1.00;;;25.20;99.90;;;;;;5186735;28;20040;-73
2022/10/09 11:40:53;;;;;;;2.97;1.20;;;27.00;99.90;;;;;;5203624;28;20033;-73
2022/10/09 11:43:25;;;;;;;2.67;1.75;;;28.20;99.90;;;;;;5195752;28;20553;-73
2022/10/09 11:46:12;;;;;;;4.20;1.67;;;27.50;99.90;;;;;;5208267;28;20032;-73
2022/10/09 11:48:50;;;;;;;2.08;1.20;;;26.90;99.90;;;;;;5193137;28;20043;-74
2022/10/09 11:51:56;;;;;;;3.33;1.50;;;27.30;99.90;;;;;;5213115;28;20017;-73
2022/10/09 11:54:31;;;;;;;2.03;1.20;;;27.20;99.90;;;;;;5195277;28;20048;-73
2022/10/09 11:57:05;;;;;;;1.00;0.75;;;28.20;99.90;;;;;;5196058;28;20468;-73
2022/10/09 11:59:41;;;;;;;2.10;1.05;;;27.80;99.90;;;;;;5212145;28;20290;-74
2022/10/09 12:02:24;;;;;;;2.55;1.10;;;27.60;99.90;;;;;;5213048;28;20033;-73
2022/10/09 12:04:56;;;;;;;1.40;1.10;;;26.30;99.90;;;;;;5194109;28;20046;-73
2022/10/09 12:07:35;;;;;;;3.88;1.40;;;24.20;99.90;;;;;;5215579;28;20031;-73
2022/10/09 12:10:32;;;;;;;1.08;1.05;;;24.10;99.90;;;;;;5211113;28;20049;-72
2022/10/09 12:13:06;;;;;;;2.22;1.45;;;23.80;99.90;;;;;;5207806;28;20033;-73
2022/10/09 12:15:47;;;;;;;3.67;1.73;;;24.40;99.90;;;;;;5210080;28;20030;-74
2022/10/09 12:18:31;;;;;;;3.45;1.45;;;24.40;99.90;;;;;;5207855;28;20035;-72
2022/10/09 12:21:17;;;;;;;3.42;1.55;;;24.30;99.90;;;;;;5207781;28;20017;-73
2022/10/09 12:23:51;;;;;;;2.05;1.30;;;25.10;99.90;;;;;;5211765;28;20221;-73
2022/10/09 12:26:24;;;;;;;1.83;1.30;;;26.90;99.90;;;;;;5204673;28;20018;-73
2022/10/09 12:29:04;;;;;;;5.40;1.92;;;28.20;99.90;;;;;;5212566;28;20031;-74
2022/10/09 12:31:38;;;;;;;3.67;1.20;;;27.70;99.90;;;;;;5206580;28;20032;-72
2022/10/09 12:34:22;;;;;;;2.17;1.42;;;27.50;99.90;;;;;;5204563;28;20064;-74
2022/10/09 12:37:17;;;;;;;4.55;1.70;;;28.60;99.90;;;;;;5206887;28;20033;-74
2022/10/09 12:39:49;;;;;;;3.78;1.65;;;29.10;99.90;;;;;;5202514;28;20257;-72
2022/10/09 12:42:23;;;;;;;4.82;1.70;;;27.10;99.90;;;;;;5206822;28;20028;-72
2022/10/09 12:44:55;;;;;;;2.15;1.50;;;25.70;99.90;;;;;;5201273;28;20023;-73
2022/10/09 12:47:28;;;;;;;1.55;1.30;;;25.70;99.90;;;;;;5197924;28;20022;-73
2022/10/09 12:50:03;;;;;;;2.65;1.60;;;27.10;99.90;;;;;;5193132;28;20036;-74
2022/10/09 12:52:34;;;;;;;3.10;1.58;;;28.30;99.90;;;;;;5193317;28;20438;-74
2022/10/09 12:55:21;;;;;;;3.03;1.33;;;28.90;99.90;;;;;;5191543;28;20033;-74
2022/10/09 12:57:58;;;;;;;4.13;1.15;;;29.90;99.90;;;;;;5199754;28;20028;-74
2022/10/09 13:00:31;;;;;;;3.28;1.10;;;29.60;99.90;;;;;;5216618;28;20032;-74
2022/10/09 13:03:02;;;;;;;2.78;1.02;;;27.60;99.90;;;;;;5205656;28;20041;-73
2022/10/09 13:05:38;;;;;;;2.60;1.30;;;26.30;99.90;;;;;;5201573;28;20484;-74
2022/10/09 13:08:24;;;;;;;1.77;1.20;;;26.00;99.90;;;;;;5216505;28;20024;-74
2022/10/09 13:11:10;;;;;;;2.58;0.90;;;25.10;99.90;;;;;;5190708;28;20533;-72
2022/10/09 13:13:41;;;;;;;1.77;1.05;;;25.30;99.90;;;;;;5188946;28;20319;-73
2022/10/09 13:16:12;;;;;;;1.33;1.02;;;25.60;99.90;;;;;;5190560;28;20484;-73
2022/10/09 13:19:05;;;;;;;2.35;1.45;;;26.30;99.90;;;;;;5190569;28;20044;-72
2022/10/09 13:21:36;;;;;;;1.65;1.10;;;25.10;99.90;;;;;;5206140;28;20061;-72
2022/10/09 13:24:13;;;;;;;1.63;1.05;;;25.40;99.90;;;;;;5203741;28;20033;-72
2022/10/09 13:26:47;;;;;;;3.28;1.33;;;26.00;99.90;;;;;;5201973;28;20025;-73
2022/10/09 13:29:23;;;;;;;3.20;1.13;;;26.40;99.90;;;;;;5203853;28;20044;-73
2022/10/09 13:31:57;;;;;;;4.03;1.42;;;25.40;99.90;;;;;;5188822;28;20031;-72
2022/10/09 13:34:28;;;;;;;1.50;1.10;;;24.80;99.90;;;;;;5211142;28;20025;-73
2022/10/09 13:37:02;;;;;;;2.53;1.27;;;24.50;99.90;;;;;;5201156;28;20186;-73